Das ist die Wetter- und Hausseite der Bittkau's aus Magdeburg Ottersleben


Hier werden aktuelle Daten aus der privaten Wetterstation und

andere lokale Wettervorhersagen bereitgestellt




Thunder radar more information blitzortung!


Rain radar more information rain snow radar



Es ist keine erhöhte Aufmerksamkeit aufgrund des Wetters notwendig.    Es gibt keine Warnungen.

METAR-Meldungen aus der Umgebung

   
EDDP - Leipzig
Aktualisierung: 01.04.2020 10:20
Klar  
Klar  
   Wind: NNW 9.3 km/h
Wind: NNW 9.3 km/h
Temperatur: 3°C
Gefühlt: 1°C
Taupunkt: -2°C
Luftfeuchte: 70%
Luftdruck: 1016 hPa
Sichtbarkeit: More than 10 km
Bewölkung: Klar
EDDP 012020Z 34005KT CAVOK 03/M02 Q1016 NOSIG
EDDC - Dresden
Aktualisierung: 01.04.2020 10:50
Klar  
Klar  
   Wind: SSW 11.1 km/h
Wind: SSW 11.1 km/h
Temperatur: 2°C
Gefühlt: -1°C
Taupunkt: -6°C
Luftfeuchte: 56%
Luftdruck: 1016 hPa
Sichtbarkeit: More than 10 km
Bewölkung: Klar
EDDC 012050Z 20006KT CAVOK 02/M06 Q1016
EDDE - Erfurt
Aktualisierung: 01.04.2020 10:50
Klar  
Klar  
   Wind: SSW 11.1 km/h
Wind: SSW 11.1 km/h
Temperatur: 2°C
Gefühlt: -1°C
Taupunkt: -6°C
Luftfeuchte: 56%
Luftdruck: 1016 hPa
Sichtbarkeit: More than 10 km
Bewölkung: Klar
EDDE 012050Z 21006KT CAVOK 02/M06 Q1016
EDVE - Braunschweig
Aktualisierung: 01.04.2020 5:50
Nicht aktuell
Stark bewölkt  
Stark bewölkt  
   Wind: WNW 14.8 km/h
Wind: WNW 14.8 km/h
Temperatur: 8°C
Gefühlt: 6°C
Taupunkt: -2°C
Luftfeuchte: 50%
Luftdruck: 1017 hPa
Bewölkt: Stark bewölkt
Sichtbarkeit: More than 10 km
Bewölkung: Stark bewölkt 1402.1 m
EDVE 011550Z 30008KT 260V330 9999 BKN046 08/M02 Q1017
EDDV - Hannover
Aktualisierung: 01.04.2020 10:50
Klar  
Klar  
   Wind: Westen 9.3 km/h
Wind: Westen 9.3 km/h
Temperatur: 5°C
Gefühlt: 3°C
Taupunkt: 1°C
Luftfeuchte: 76%
Luftdruck: 1017 hPa
Sichtbarkeit: More than 10 km
Bewölkung: Klar
EDDV 012050Z 28005KT CAVOK 05/01 Q1017 NOSIG
EDDT - Berlin
Aktualisierung: 01.04.2020 10:50
Klar  
Klar  
   Wind: Westen 14.8 km/h
Wind: Westen 14.8 km/h
Temperatur: 6°C
Gefühlt: 3°C
Taupunkt: -1°C
Luftfeuchte: 61%
Luftdruck: 1015 hPa
Sichtbarkeit: More than 10 km
Bewölkung: Klar
EDDT 012050Z 26008KT CAVOK 06/M01 Q1015 NOSIG
EDDE - Schwerin
Aktualisierung: 01.04.2020 10:50
Klar  
Klar  
   Wind: SSW 11.1 km/h
Wind: SSW 11.1 km/h
Temperatur: 2°C
Gefühlt: -1°C
Taupunkt: -6°C
Luftfeuchte: 56%
Luftdruck: 1016 hPa
Sichtbarkeit: More than 10 km
Bewölkung: Klar
EDDE 012050Z 21006KT CAVOK 02/M06 Q1016
EDHI - Hamburg
Aktualisierung: 01.04.2020 10:50
Bewölkt  
Bewölkt  
   Wind: Westen 13 km/h
Wind: Westen 13 km/h
Temperatur: 6°C
Gefühlt: 3°C
Taupunkt: 3°C
Luftfeuchte: 81%
Luftdruck: 1015 hPa
Bewölkt: Bewölkt
Sichtbarkeit: More than 10 km
Bewölkung: Bewölkt 1737.4 m
EDHI 012050Z AUTO 26007KT 9999 // OVC057/// 06/03 Q1015
EDDK - Köln-Bonn
Aktualisierung: 01.04.2020 10:50
Klar  
Klar  
   Wind: NNO 9.3 km/h
Wind: NNO 9.3 km/h
Temperatur: 5°C
Gefühlt: 3°C
Taupunkt: -4°C
Luftfeuchte: 53%
Luftdruck: 1017 hPa
Sichtbarkeit: More than 10 km
Bewölkung: Klar
EDDK 012050Z 03005KT CAVOK 05/M04 Q1017 NOSIG
EDHL - Lübeck-Blankensee
Aktualisierung: 01.04.2020 8:50
Nicht aktuell
Klar  
Klar  
   Wind: SW 11.1 km/h
Wind: SW 11.1 km/h
Temperatur: 6°C
Gefühlt: 4°C
Taupunkt: 2°C
Luftfeuchte: 76%
Luftdruck: 1015 hPa
Sichtbarkeit: More than 10 km
Bewölkung: Klar
EDHL 011850Z 23006KT 210V280 CAVOK 06/02 Q1015
  

Script entwickelt von  Saratoga-weather.org Angepasst für das Template von  Weerstation Leuven

Sie finden die Wetterinfo auch auf:

Wetternetzwerk Deutschland

European Weather Network

Weather Underground

Regionalwetter-SA

wetter.com

wxforum.de

Genutzte Hardware, Software und WEB Anbieter:

Wetterstation
Ventus W928-Ultimate

Wetterprogramm
Meteohub

WetterComputer
RaspberryPI

Anbieter
WEB Provider One.com

Ventus W928-Ultimate

Meteohub

RaspberryPI

WEB Provider One.com